createdAt,value
2017-09-15T00:00:24.095Z,12.18
2017-09-15T00:01:24.815Z,12.22
2017-09-15T00:02:25.531Z,12.20
2017-09-15T00:03:26.246Z,12.10
2017-09-15T00:04:26.966Z,12.20
2017-09-15T00:05:27.685Z,12.22
2017-09-15T00:06:28.401Z,12.18
2017-09-15T00:07:29.120Z,12.27
2017-09-15T00:08:29.839Z,12.17
2017-09-15T00:09:30.556Z,12.18
2017-09-15T00:10:31.274Z,12.17
2017-09-15T00:11:31.993Z,12.15
2017-09-15T00:12:32.711Z,12.13
2017-09-15T00:13:33.426Z,12.06
2017-09-15T00:14:34.146Z,12.06
2017-09-15T00:15:34.865Z,12.04
2017-09-15T00:16:35.593Z,12.13
2017-09-15T00:17:36.299Z,12.04
2017-09-15T00:18:37.019Z,12.07
2017-09-15T00:19:37.736Z,12.06
2017-09-15T00:20:38.475Z,12.02
2017-09-15T00:21:39.196Z,11.95
2017-09-15T00:22:39.932Z,12.07
2017-09-15T00:23:40.647Z,12.00
2017-09-15T00:24:41.365Z,12.09
2017-09-15T00:25:42.105Z,12.04
2017-09-15T00:26:42.822Z,12.02
2017-09-15T00:27:43.541Z,12.02
2017-09-15T00:28:44.260Z,12.00
2017-09-15T00:29:44.994Z,12.02
2017-09-15T00:30:45.733Z,12.04
2017-09-15T00:31:46.452Z,12.00
2017-09-15T00:32:47.189Z,12.04
2017-09-15T00:33:47.912Z,12.00
2017-09-15T00:34:48.648Z,12.03
2017-09-15T00:35:49.365Z,12.00
2017-09-15T00:36:50.082Z,11.97
2017-09-15T00:37:50.802Z,11.95
2017-09-15T00:38:51.521Z,11.97
2017-09-15T00:39:52.241Z,12.00
2017-09-15T00:40:52.958Z,11.91
2017-09-15T00:41:53.677Z,12.00
2017-09-15T00:42:54.394Z,11.95
2017-09-15T00:43:55.114Z,12.03
2017-09-15T00:44:55.830Z,11.95
2017-09-15T00:45:56.548Z,11.97
2017-09-15T00:46:57.265Z,12.00
2017-09-15T00:47:57.981Z,12.00
2017-09-15T00:48:58.702Z,11.91
2017-09-15T00:49:59.444Z,11.95
2017-09-15T00:51:00.159Z,12.02
2017-09-15T00:52:00.878Z,11.99
2017-09-15T00:53:01.593Z,12.03
2017-09-15T00:54:02.312Z,11.97
2017-09-15T00:55:03.049Z,11.97
2017-09-15T00:56:03.768Z,11.88
2017-09-15T00:57:04.483Z,11.88
2017-09-15T00:58:05.202Z,11.94
2017-09-15T00:59:05.921Z,11.84
2017-09-15T01:00:06.658Z,11.86
2017-09-15T01:01:07.375Z,11.97
2017-09-15T01:02:08.095Z,11.94
2017-09-15T01:03:08.812Z,11.94
2017-09-15T01:04:09.527Z,11.90
2017-09-15T01:05:10.248Z,11.94
2017-09-15T01:06:10.964Z,11.86
2017-09-15T01:07:11.684Z,11.87
2017-09-15T01:08:12.401Z,11.78
2017-09-15T01:09:13.119Z,11.83
2017-09-15T01:10:13.836Z,11.87
2017-09-15T01:11:14.557Z,11.80
2017-09-15T01:12:15.273Z,11.81
2017-09-15T01:13:15.991Z,11.81
2017-09-15T01:14:16.708Z,11.78
2017-09-15T01:15:17.427Z,11.87
2017-09-15T01:16:18.145Z,11.81
2017-09-15T01:17:18.863Z,11.80
2017-09-15T01:18:19.599Z,11.83
2017-09-15T01:19:20.318Z,11.86
2017-09-15T01:20:21.036Z,11.80
2017-09-15T01:21:21.754Z,11.78
2017-09-15T01:22:22.473Z,11.80
2017-09-15T01:23:23.192Z,11.80
2017-09-15T01:24:23.913Z,11.73
2017-09-15T01:25:24.630Z,11.66
2017-09-15T01:26:25.371Z,11.78
2017-09-15T01:27:26.106Z,11.75
2017-09-15T01:28:26.824Z,11.70
2017-09-15T01:29:27.564Z,11.80
2017-09-15T01:30:28.282Z,11.75
2017-09-15T01:31:29.001Z,11.83
2017-09-15T01:32:29.719Z,11.77
2017-09-15T01:33:30.438Z,11.84
2017-09-15T01:34:31.158Z,11.87
2017-09-15T01:35:31.881Z,11.84
2017-09-15T01:36:32.617Z,11.81
2017-09-15T01:37:33.335Z,11.81
2017-09-15T01:38:34.056Z,11.78
2017-09-15T01:39:34.794Z,11.86
2017-09-15T01:40:35.510Z,11.80
2017-09-15T01:41:36.248Z,11.81
2017-09-15T01:42:36.966Z,11.66
2017-09-15T01:43:37.685Z,11.70
2017-09-15T01:44:38.404Z,11.84
2017-09-15T01:45:39.127Z,11.75
2017-09-15T01:46:39.841Z,11.77
2017-09-15T01:47:40.559Z,11.66
2017-09-15T01:48:41.276Z,11.73
2017-09-15T01:49:41.995Z,11.68
2017-09-15T01:50:42.713Z,11.68
2017-09-15T01:51:43.453Z,11.72
2017-09-15T01:52:44.190Z,11.75
2017-09-15T01:53:44.909Z,11.70
2017-09-15T01:54:45.646Z,11.77
2017-09-15T01:55:46.367Z,11.72
2017-09-15T01:56:47.085Z,11.77
2017-09-15T01:57:47.802Z,11.80
2017-09-15T01:58:48.520Z,11.68
2017-09-15T01:59:49.237Z,11.68
2017-09-15T02:00:49.958Z,11.77
2017-09-15T02:01:50.677Z,11.69
2017-09-15T02:02:51.396Z,11.70
2017-09-15T02:03:52.117Z,11.68
2017-09-15T02:04:52.855Z,11.66
2017-09-15T02:05:53.572Z,11.66
2017-09-15T02:06:54.294Z,11.68
2017-09-15T02:07:55.012Z,11.73
2017-09-15T02:08:55.752Z,11.69
2017-09-15T02:09:56.468Z,11.72
2017-09-15T02:10:57.204Z,11.68
2017-09-15T02:11:57.924Z,11.69
2017-09-15T02:12:58.642Z,11.68
2017-09-15T02:13:59.358Z,11.75
2017-09-15T02:15:00.083Z,11.72
2017-09-15T02:16:00.801Z,11.68
2017-09-15T02:17:01.517Z,11.69
2017-09-15T02:18:02.236Z,11.70
2017-09-15T02:19:02.976Z,11.68
2017-09-15T02:20:03.693Z,11.70
2017-09-15T02:21:04.434Z,11.72
2017-09-15T02:22:05.154Z,11.69
2017-09-15T02:23:05.891Z,11.73
2017-09-15T02:24:06.614Z,11.73
2017-09-15T02:25:07.332Z,11.73
2017-09-15T02:26:08.050Z,11.73
2017-09-15T02:27:08.773Z,11.65
2017-09-15T02:28:09.490Z,11.70
2017-09-15T02:29:10.209Z,11.66
2017-09-15T02:30:10.928Z,11.70
2017-09-15T02:31:11.644Z,11.70
2017-09-15T02:32:12.362Z,11.68
2017-09-15T02:33:13.100Z,11.77
2017-09-15T02:34:13.817Z,11.63
2017-09-15T02:35:14.555Z,11.68
2017-09-15T02:36:15.273Z,11.72
2017-09-15T02:37:15.991Z,11.77
2017-09-15T02:38:16.712Z,11.73
2017-09-15T02:39:17.427Z,11.73
2017-09-15T02:40:18.146Z,11.73
2017-09-15T02:41:18.863Z,11.73
2017-09-15T02:42:19.581Z,11.70
2017-09-15T02:43:20.300Z,11.65
2017-09-15T02:44:21.020Z,11.68
2017-09-15T02:45:21.764Z,11.75
2017-09-15T02:46:22.477Z,11.75
2017-09-15T02:47:23.196Z,11.72
2017-09-15T02:48:23.936Z,11.73
2017-09-15T02:49:24.656Z,11.68
2017-09-15T02:50:25.374Z,11.68
2017-09-15T02:51:26.094Z,11.70
2017-09-15T02:52:26.815Z,11.69
2017-09-15T02:53:27.548Z,11.69
2017-09-15T02:54:28.268Z,11.65
2017-09-15T02:55:28.988Z,11.77
2017-09-15T02:56:29.711Z,11.72
2017-09-15T02:57:30.426Z,11.68
2017-09-15T02:58:31.144Z,11.72
2017-09-15T02:59:31.884Z,11.73
2017-09-15T03:00:32.603Z,11.68
2017-09-15T03:01:33.346Z,11.70
2017-09-15T03:02:34.063Z,11.73
2017-09-15T03:03:34.784Z,11.77
2017-09-15T03:04:35.500Z,11.65
2017-09-15T03:05:36.222Z,11.73
2017-09-15T03:06:36.941Z,11.70
2017-09-15T03:07:37.660Z,11.73
2017-09-15T03:08:38.379Z,11.70
2017-09-15T03:09:39.099Z,11.68
2017-09-15T03:10:39.818Z,11.70
2017-09-15T03:11:40.554Z,11.73
2017-09-15T03:12:41.273Z,11.68
2017-09-15T03:13:41.994Z,11.70
2017-09-15T03:14:42.714Z,11.70
2017-09-15T03:15:43.451Z,11.59
2017-09-15T03:16:44.172Z,11.72
2017-09-15T03:17:44.888Z,11.57
2017-09-15T03:18:45.608Z,11.69
2017-09-15T03:19:46.326Z,11.62
2017-09-15T03:20:47.066Z,11.60
2017-09-15T03:21:47.785Z,11.63
2017-09-15T03:22:48.524Z,11.60
2017-09-15T03:23:49.245Z,11.55
2017-09-15T03:24:49.983Z,11.59
2017-09-15T03:25:50.726Z,11.59
2017-09-15T03:26:51.443Z,11.52
2017-09-15T03:27:52.160Z,11.50
2017-09-15T03:28:52.879Z,11.54
2017-09-15T03:29:53.596Z,11.52
2017-09-15T03:30:54.316Z,11.48
2017-09-15T03:31:55.034Z,11.51
2017-09-15T03:32:55.752Z,11.51
2017-09-15T03:33:56.473Z,11.47
2017-09-15T03:34:57.191Z,11.44
2017-09-15T03:35:57.911Z,11.47
2017-09-15T03:36:58.627Z,11.48
2017-09-15T03:37:59.343Z,11.45
2017-09-15T03:39:00.065Z,11.37
2017-09-15T03:40:00.784Z,11.41
2017-09-15T03:41:01.500Z,11.43
2017-09-15T03:42:02.236Z,11.47
2017-09-15T03:43:02.959Z,11.41
2017-09-15T03:44:03.696Z,11.40
2017-09-15T03:45:04.415Z,11.33
2017-09-15T03:46:05.134Z,11.40
2017-09-15T03:47:05.853Z,11.37
2017-09-15T03:48:06.569Z,11.40
2017-09-15T03:49:07.306Z,11.43
2017-09-15T03:50:08.025Z,11.44
2017-09-15T03:51:08.765Z,11.41
2017-09-15T03:52:09.487Z,11.43
2017-09-15T03:53:10.207Z,11.44
2017-09-15T03:54:10.926Z,11.44
2017-09-15T03:55:11.643Z,11.48
2017-09-15T03:56:12.381Z,11.45
2017-09-15T03:57:13.102Z,11.41
2017-09-15T03:58:13.840Z,11.44
2017-09-15T03:59:14.561Z,11.40
2017-09-15T04:00:15.280Z,11.45
2017-09-15T04:01:15.998Z,11.43
2017-09-15T04:02:16.736Z,11.43
2017-09-15T04:03:17.454Z,11.43
2017-09-15T04:04:18.172Z,11.43
2017-09-15T04:05:18.889Z,11.43
2017-09-15T04:06:19.608Z,11.43
2017-09-15T04:07:20.346Z,11.41
2017-09-15T04:08:21.063Z,11.33
2017-09-15T04:09:21.781Z,11.30
2017-09-15T04:10:22.500Z,11.29
2017-09-15T04:11:23.221Z,11.25
2017-09-15T04:12:23.940Z,11.33
2017-09-15T04:13:24.661Z,11.19
2017-09-15T04:14:25.377Z,11.30
2017-09-15T04:15:26.097Z,11.32
2017-09-15T04:16:26.816Z,11.27
2017-09-15T04:17:27.554Z,11.29
2017-09-15T04:18:28.294Z,11.17
2017-09-15T04:19:29.032Z,11.22
2017-09-15T04:20:29.752Z,11.26
2017-09-15T04:21:30.471Z,11.23
2017-09-15T04:22:31.208Z,11.25
2017-09-15T04:23:31.927Z,11.29
2017-09-15T04:24:32.646Z,11.29
2017-09-15T04:25:33.361Z,11.29
2017-09-15T04:26:34.079Z,11.29
2017-09-15T04:27:34.818Z,11.27
2017-09-15T04:28:35.536Z,11.23
2017-09-15T04:29:36.258Z,11.26
2017-09-15T04:30:36.973Z,11.18
2017-09-15T04:31:37.699Z,11.23
2017-09-15T04:32:38.413Z,11.19
2017-09-15T04:33:39.131Z,11.18
2017-09-15T04:34:39.852Z,11.18
2017-09-15T04:35:40.571Z,11.25
2017-09-15T04:36:41.289Z,11.15
2017-09-15T04:37:42.029Z,11.19
2017-09-15T04:38:42.749Z,11.19
2017-09-15T04:39:43.465Z,11.19
2017-09-15T04:40:44.184Z,11.18
2017-09-15T04:41:44.903Z,11.26
2017-09-15T04:42:45.642Z,11.19
2017-09-15T04:43:46.384Z,11.18
2017-09-15T04:44:47.102Z,11.19
2017-09-15T04:45:47.823Z,11.25
2017-09-15T04:46:48.542Z,11.23
2017-09-15T04:47:49.259Z,11.14
2017-09-15T04:48:49.999Z,11.19
2017-09-15T04:49:50.718Z,11.23
2017-09-15T04:50:51.437Z,11.23
2017-09-15T04:51:52.159Z,11.27
2017-09-15T04:52:52.879Z,11.25
2017-09-15T04:53:53.595Z,11.29
2017-09-15T04:54:54.316Z,11.27
2017-09-15T04:55:55.037Z,11.17
2017-09-15T04:56:55.773Z,11.23
2017-09-15T04:57:56.492Z,11.29
2017-09-15T04:58:57.212Z,11.22
2017-09-15T04:59:57.951Z,11.29
2017-09-15T05:00:58.671Z,11.26
2017-09-15T05:01:59.392Z,11.26
2017-09-15T05:03:00.137Z,11.32
2017-09-15T05:04:00.859Z,11.18
2017-09-15T05:05:01.579Z,11.18
2017-09-15T05:06:02.303Z,11.25
2017-09-15T05:07:03.022Z,11.25
2017-09-15T05:08:03.766Z,11.17
2017-09-15T05:09:04.509Z,11.15
2017-09-15T05:10:05.228Z,11.26
2017-09-15T05:11:05.951Z,11.26
2017-09-15T05:12:06.672Z,11.23
2017-09-15T05:13:07.395Z,11.19
2017-09-15T05:14:08.116Z,11.29
2017-09-15T05:15:08.835Z,11.18
2017-09-15T05:16:09.576Z,11.19
2017-09-15T05:17:10.297Z,11.22
2017-09-15T05:18:11.020Z,11.25
2017-09-15T05:19:11.758Z,11.25
2017-09-15T05:20:12.481Z,11.19
2017-09-15T05:21:13.201Z,11.17
2017-09-15T05:22:13.927Z,11.19
2017-09-15T05:23:14.646Z,11.19
2017-09-15T05:24:15.367Z,11.12
2017-09-15T05:25:16.088Z,11.12
2017-09-15T05:26:16.809Z,11.17
2017-09-15T05:27:17.531Z,11.15
2017-09-15T05:28:18.271Z,11.11
2017-09-15T05:29:18.994Z,11.07
2017-09-15T05:30:19.714Z,11.08
2017-09-15T05:31:20.437Z,11.04
2017-09-15T05:32:21.158Z,11.07
2017-09-15T05:33:21.898Z,11.10
2017-09-15T05:34:22.622Z,11.08
2017-09-15T05:35:23.346Z,11.04
2017-09-15T05:36:24.069Z,11.05
2017-09-15T05:37:24.792Z,11.04
2017-09-15T05:38:25.514Z,11.07
2017-09-15T05:39:26.261Z,11.10
2017-09-15T05:40:26.980Z,11.07
2017-09-15T05:41:27.704Z,11.08
2017-09-15T05:42:28.428Z,11.04
2017-09-15T05:43:29.149Z,11.02
2017-09-15T05:44:29.875Z,11.08
2017-09-15T05:45:30.600Z,11.11
2017-09-15T05:46:31.345Z,11.11
2017-09-15T05:47:32.068Z,11.11
2017-09-15T05:48:32.793Z,11.10
2017-09-15T05:49:33.517Z,11.11
2017-09-15T05:50:34.238Z,11.12
2017-09-15T05:51:34.981Z,11.15
2017-09-15T05:52:35.705Z,11.17
2017-09-15T05:53:36.429Z,11.12
2017-09-15T05:54:37.154Z,11.26
2017-09-15T05:55:37.878Z,11.12
2017-09-15T05:56:38.602Z,11.18
2017-09-15T05:57:39.327Z,11.29
2017-09-15T05:58:40.068Z,11.29
2017-09-15T05:59:40.813Z,11.27
2017-09-15T06:00:41.538Z,11.32
2017-09-15T06:01:42.262Z,11.37
2017-09-15T06:02:42.986Z,11.32
2017-09-15T06:03:43.711Z,11.22
2017-09-15T06:04:44.432Z,11.35
2017-09-15T06:05:45.157Z,11.40
2017-09-15T06:06:45.881Z,11.36
2017-09-15T06:07:46.603Z,11.32
2017-09-15T06:08:47.330Z,11.29
2017-09-15T06:09:48.053Z,11.27
2017-09-15T06:10:48.797Z,11.29
2017-09-15T06:11:49.520Z,11.27
2017-09-15T06:12:50.241Z,11.35
2017-09-15T06:13:50.967Z,11.36
2017-09-15T06:14:51.712Z,11.23
2017-09-15T06:15:52.433Z,11.32
2017-09-15T06:16:53.160Z,11.32
2017-09-15T06:17:53.884Z,11.32
2017-09-15T06:18:54.610Z,11.32
2017-09-15T06:19:55.355Z,11.43
2017-09-15T06:20:56.082Z,11.36
2017-09-15T06:21:56.827Z,11.36
2017-09-15T06:22:57.553Z,11.41
2017-09-15T06:23:58.278Z,11.44
2017-09-15T06:24:59.002Z,11.37
2017-09-15T06:25:59.726Z,11.47
2017-09-15T06:27:00.453Z,11.55
2017-09-15T06:28:01.179Z,11.65
2017-09-15T06:29:01.906Z,11.73
2017-09-15T06:30:02.633Z,11.75
2017-09-15T06:31:03.381Z,11.84
2017-09-15T06:32:04.122Z,11.78
2017-09-15T06:33:04.867Z,11.70
2017-09-15T06:34:05.591Z,11.68
2017-09-15T06:35:06.319Z,11.83
2017-09-15T06:36:07.047Z,11.78
2017-09-15T06:37:07.791Z,11.78
2017-09-15T06:38:08.518Z,11.70
2017-09-15T06:39:09.264Z,11.57
2017-09-15T06:40:09.988Z,11.62
2017-09-15T06:41:10.713Z,11.59
2017-09-15T06:42:11.436Z,11.57
2017-09-15T06:43:12.160Z,11.57
2017-09-15T06:44:12.883Z,11.57
2017-09-15T06:45:13.609Z,11.51
2017-09-15T06:46:14.332Z,11.52
2017-09-15T06:47:15.078Z,11.62
2017-09-15T06:48:15.803Z,11.63
2017-09-15T06:49:16.529Z,11.66
2017-09-15T06:50:17.255Z,11.65
2017-09-15T06:51:17.984Z,11.65
2017-09-15T06:52:18.719Z,11.59
2017-09-15T06:53:19.445Z,11.51
2017-09-15T06:54:20.168Z,11.45
2017-09-15T06:55:20.894Z,11.45
2017-09-15T06:56:21.623Z,11.44
2017-09-15T06:57:22.348Z,11.48
2017-09-15T06:58:23.069Z,11.43
2017-09-15T06:59:23.797Z,11.54
2017-09-15T07:00:24.527Z,11.54
2017-09-15T07:01:25.269Z,11.55
2017-09-15T07:02:26.093Z,11.68
2017-09-15T07:03:26.818Z,11.62
2017-09-15T07:04:27.545Z,11.63
2017-09-15T07:05:28.285Z,11.73
2017-09-15T07:06:29.001Z,11.73
2017-09-15T07:07:29.724Z,11.69
2017-09-15T07:08:30.467Z,11.78
2017-09-15T07:09:31.196Z,11.80
2017-09-15T07:10:31.943Z,11.81
2017-09-15T07:11:32.671Z,12.04
2017-09-15T07:12:33.398Z,12.18
2017-09-15T07:13:34.145Z,12.24
2017-09-15T07:14:34.890Z,12.43
2017-09-15T07:15:35.617Z,12.43
2017-09-15T07:16:36.353Z,12.35
2017-09-15T07:17:37.070Z,12.40
2017-09-15T07:18:37.793Z,12.36
2017-09-15T07:19:38.523Z,12.40
2017-09-15T07:20:39.252Z,12.32
2017-09-15T07:21:39.974Z,12.18
2017-09-15T07:22:40.705Z,12.20
2017-09-15T07:23:41.431Z,12.36
2017-09-15T07:24:42.160Z,12.47
2017-09-15T07:25:42.905Z,12.46
2017-09-15T07:26:43.632Z,12.46
2017-09-15T07:27:44.360Z,12.46
2017-09-15T07:28:45.095Z,12.42
2017-09-15T07:29:45.813Z,12.37
2017-09-15T07:30:46.540Z,12.37
2017-09-15T07:31:47.268Z,12.36
2017-09-15T07:32:48.000Z,12.37
2017-09-15T07:33:48.742Z,12.25
2017-09-15T07:34:49.466Z,12.28
2017-09-15T07:35:50.216Z,12.28
2017-09-15T07:36:50.942Z,12.22
2017-09-15T07:37:51.689Z,12.31
2017-09-15T07:38:52.437Z,12.27
2017-09-15T07:39:53.161Z,12.32
2017-09-15T07:40:53.891Z,12.43
2017-09-15T07:41:54.618Z,12.47
2017-09-15T07:42:55.343Z,12.43
2017-09-15T07:43:56.076Z,12.58
2017-09-15T07:44:56.803Z,12.58
2017-09-15T07:45:57.528Z,12.65
2017-09-15T07:46:58.257Z,12.68
2017-09-15T07:47:58.985Z,12.70
2017-09-15T07:48:59.735Z,12.73
2017-09-15T07:50:00.463Z,12.65
2017-09-15T07:51:01.189Z,12.58
2017-09-15T07:52:01.918Z,12.64
2017-09-15T07:53:02.666Z,12.58
2017-09-15T07:54:03.394Z,12.55
2017-09-15T07:55:04.121Z,12.53
2017-09-15T07:56:04.849Z,12.58
2017-09-15T07:57:05.596Z,12.58
2017-09-15T07:58:06.322Z,12.46
2017-09-15T07:59:07.049Z,12.49
2017-09-15T08:00:07.776Z,12.47
2017-09-15T08:01:08.504Z,12.53
2017-09-15T08:02:09.230Z,12.62
2017-09-15T08:03:09.959Z,12.61
2017-09-15T08:04:10.695Z,12.67
2017-09-15T08:05:11.412Z,12.75
2017-09-15T08:06:12.158Z,12.75
2017-09-15T08:07:12.905Z,12.82
2017-09-15T08:08:13.633Z,13.00
2017-09-15T08:09:14.362Z,13.27
2017-09-15T08:10:15.092Z,13.33
2017-09-15T08:11:15.822Z,13.39
2017-09-15T08:12:16.549Z,13.31
2017-09-15T08:13:17.311Z,13.47
2017-09-15T08:14:18.010Z,13.46
2017-09-15T08:15:18.742Z,13.59
2017-09-15T08:16:19.486Z,13.79
2017-09-15T08:17:20.216Z,14.00
2017-09-15T08:18:20.948Z,14.03
2017-09-15T08:19:21.680Z,13.93
2017-09-15T08:20:22.410Z,13.71
2017-09-15T08:21:23.156Z,13.63
2017-09-15T08:22:23.886Z,13.59
2017-09-15T08:23:24.637Z,13.38
2017-09-15T08:24:25.365Z,13.44
2017-09-15T08:25:26.094Z,13.47
2017-09-15T08:26:26.826Z,13.47
2017-09-15T08:27:27.574Z,13.46
2017-09-15T08:28:28.326Z,13.39
2017-09-15T08:29:29.031Z,13.39
2017-09-15T08:30:29.781Z,13.33
2017-09-15T08:31:30.508Z,13.30
2017-09-15T08:32:31.233Z,13.16
2017-09-15T08:33:31.963Z,13.01
2017-09-15T08:34:32.687Z,13.03
2017-09-15T08:35:33.416Z,13.03
2017-09-15T08:36:34.145Z,13.00
2017-09-15T08:37:34.871Z,13.01
2017-09-15T08:38:35.596Z,13.00
2017-09-15T08:39:36.325Z,13.03
2017-09-15T08:40:37.052Z,12.97
2017-09-15T08:41:37.777Z,12.95
2017-09-15T08:42:38.504Z,12.82
2017-09-15T08:43:39.256Z,12.86
2017-09-15T08:44:39.979Z,12.91
2017-09-15T08:45:40.708Z,12.97
2017-09-15T08:46:41.437Z,13.01
2017-09-15T08:47:42.163Z,13.09
2017-09-15T08:48:42.891Z,13.09
2017-09-15T08:49:43.619Z,13.13
2017-09-15T08:50:44.367Z,13.16
2017-09-15T08:51:45.103Z,13.27
2017-09-15T08:52:45.824Z,13.20
2017-09-15T08:53:46.550Z,13.31
2017-09-15T08:54:47.275Z,13.25
2017-09-15T08:55:48.005Z,13.30
2017-09-15T08:56:48.734Z,13.30
2017-09-15T08:57:49.481Z,13.23
2017-09-15T08:58:50.207Z,13.42
2017-09-15T08:59:50.954Z,13.33
2017-09-15T09:00:51.701Z,13.30
2017-09-15T09:01:52.427Z,13.27
2017-09-15T09:02:53.157Z,13.38
2017-09-15T09:03:53.885Z,13.35
2017-09-15T09:04:54.634Z,13.27
2017-09-15T09:05:55.364Z,13.39
2017-09-15T09:06:56.095Z,13.67
2017-09-15T09:07:56.847Z,14.14
2017-09-15T09:08:57.579Z,14.51
2017-09-15T09:09:58.307Z,14.54
2017-09-15T09:10:59.038Z,14.47
2017-09-15T09:11:59.768Z,14.51
2017-09-15T09:13:00.500Z,14.51
2017-09-15T09:14:01.231Z,14.55
2017-09-15T09:15:01.959Z,14.59
2017-09-15T09:16:02.690Z,14.55
2017-09-15T09:17:03.421Z,14.44
2017-09-15T09:18:04.152Z,14.14
2017-09-15T09:19:04.883Z,14.28
2017-09-15T09:20:05.612Z,14.28
2017-09-15T09:21:06.345Z,14.36
2017-09-15T09:22:07.076Z,14.54
2017-09-15T09:23:07.803Z,14.44
2017-09-15T09:24:08.537Z,14.44
2017-09-15T09:25:09.269Z,14.36
2017-09-15T09:26:10.002Z,14.35
2017-09-15T09:27:10.732Z,14.15
2017-09-15T09:28:11.481Z,14.32
2017-09-15T09:29:12.211Z,14.30
2017-09-15T09:30:12.943Z,14.60
2017-09-15T09:31:13.674Z,14.82
2017-09-15T09:32:14.430Z,14.86
2017-09-15T09:33:15.160Z,14.88
2017-09-15T09:34:15.889Z,14.68
2017-09-15T09:35:16.621Z,14.79
2017-09-15T09:36:17.354Z,14.85
2017-09-15T09:37:18.086Z,14.94
2017-09-15T09:38:18.840Z,15.36
2017-09-15T09:39:19.570Z,15.28
2017-09-15T09:40:20.303Z,15.40
2017-09-15T09:41:21.056Z,15.76
2017-09-15T09:42:21.792Z,16.12
2017-09-15T09:43:22.535Z,15.95
2017-09-15T09:44:23.264Z,16.29
2017-09-15T09:45:23.998Z,16.76
2017-09-15T09:46:24.732Z,17.14
2017-09-15T09:47:25.469Z,17.15
2017-09-15T09:48:26.204Z,16.87
2017-09-15T09:49:26.938Z,16.36
2017-09-15T09:50:27.693Z,16.65
2017-09-15T09:51:28.428Z,16.39
2017-09-15T09:52:29.162Z,16.02
2017-09-15T09:53:29.917Z,15.88
2017-09-15T09:54:30.651Z,15.64
2017-09-15T09:55:31.384Z,15.44
2017-09-15T09:56:32.138Z,15.52
2017-09-15T09:57:32.872Z,15.49
2017-09-15T09:58:33.605Z,15.67
2017-09-15T09:59:34.340Z,16.29
2017-09-15T10:00:35.078Z,16.58
2017-09-15T10:01:35.815Z,16.97
2017-09-15T10:02:36.577Z,17.34
2017-09-15T10:03:37.310Z,17.34
2017-09-15T10:04:38.069Z,17.34
2017-09-15T10:05:38.806Z,17.31
2017-09-15T10:06:39.563Z,18.10
2017-09-15T10:07:40.305Z,18.37
2017-09-15T10:08:41.045Z,18.19
2017-09-15T10:09:41.782Z,17.59
2017-09-15T10:10:42.520Z,16.74
2017-09-15T10:11:43.261Z,16.53
2017-09-15T10:12:43.996Z,16.51
2017-09-15T10:13:44.732Z,16.78
2017-09-15T10:14:45.471Z,16.61
2017-09-15T10:15:46.229Z,16.81
2017-09-15T10:16:46.966Z,16.41
2017-09-15T10:17:47.725Z,17.14
2017-09-15T10:18:48.486Z,17.30
2017-09-15T10:19:49.224Z,17.65
2017-09-15T10:20:49.963Z,17.83
2017-09-15T10:21:50.704Z,17.89
2017-09-15T10:22:51.444Z,18.31
2017-09-15T10:23:52.187Z,18.19
2017-09-15T10:24:52.932Z,18.45
2017-09-15T10:25:53.679Z,18.56
2017-09-15T10:26:54.418Z,18.78
2017-09-15T10:27:55.162Z,18.83
2017-09-15T10:28:55.911Z,18.62
2017-09-15T10:29:56.649Z,18.88
2017-09-15T10:30:57.395Z,19.31
2017-09-15T10:31:58.142Z,19.47
2017-09-15T10:32:58.885Z,19.86
2017-09-15T10:33:59.634Z,19.40
2017-09-15T10:35:00.377Z,19.29
2017-09-15T10:36:01.120Z,18.71
2017-09-15T10:37:01.860Z,18.18
2017-09-15T10:38:02.603Z,17.67
2017-09-15T10:39:03.344Z,17.02
2017-09-15T10:40:04.086Z,16.93
2017-09-15T10:41:04.849Z,16.76
2017-09-15T10:42:05.585Z,16.51
2017-09-15T10:43:06.323Z,16.26
2017-09-15T10:44:07.081Z,16.56
2017-09-15T10:45:07.819Z,16.78
2017-09-15T10:46:08.551Z,16.97
2017-09-15T10:47:09.288Z,17.23
2017-09-15T10:48:10.025Z,17.90
2017-09-15T10:49:10.780Z,18.15
2017-09-15T10:50:11.521Z,18.07
2017-09-15T10:51:12.261Z,17.79
2017-09-15T10:52:12.998Z,17.76
2017-09-15T10:53:13.751Z,17.57
2017-09-15T10:54:14.486Z,17.15
2017-09-15T10:55:15.223Z,16.97
2017-09-15T10:56:15.979Z,16.33
2017-09-15T10:57:16.732Z,16.36
2017-09-15T10:58:17.466Z,16.29
2017-09-15T10:59:18.198Z,16.29
2017-09-15T11:00:18.933Z,16.21
2017-09-15T11:01:19.665Z,16.01
2017-09-15T11:02:20.398Z,15.88
2017-09-15T11:03:21.130Z,15.98
2017-09-15T11:04:21.863Z,16.50
2017-09-15T11:05:22.596Z,16.50
2017-09-15T11:06:23.332Z,16.23
2017-09-15T11:07:24.066Z,16.31
2017-09-15T11:08:24.795Z,16.09
2017-09-15T11:09:25.529Z,16.02
2017-09-15T11:10:26.280Z,15.83
2017-09-15T11:11:27.014Z,15.80
2017-09-15T11:12:27.746Z,15.82
2017-09-15T11:13:28.477Z,15.83
2017-09-15T11:14:29.209Z,15.92
2017-09-15T11:15:29.940Z,15.77
2017-09-15T11:16:30.689Z,15.72
2017-09-15T11:17:31.422Z,15.76
2017-09-15T11:18:32.153Z,15.84
2017-09-15T11:19:32.882Z,15.65
2017-09-15T11:20:33.610Z,15.61
2017-09-15T11:21:34.340Z,15.46
2017-09-15T11:22:35.101Z,15.39
2017-09-15T11:23:35.802Z,15.29
2017-09-15T11:24:36.532Z,15.21
2017-09-15T11:25:37.262Z,15.04
2017-09-15T11:26:37.990Z,14.97
2017-09-15T11:27:38.721Z,15.09
2017-09-15T11:28:39.451Z,15.14
2017-09-15T11:29:40.180Z,15.25
2017-09-15T11:30:40.915Z,15.39
2017-09-15T11:31:41.643Z,15.42
2017-09-15T11:32:42.375Z,15.49
2017-09-15T11:33:43.106Z,15.65
2017-09-15T11:34:43.837Z,15.70
2017-09-15T11:35:44.566Z,15.76
2017-09-15T11:36:45.300Z,15.95
2017-09-15T11:37:46.031Z,15.91
2017-09-15T11:38:46.765Z,16.21
2017-09-15T11:39:47.498Z,16.51
2017-09-15T11:40:48.230Z,16.69
2017-09-15T11:41:48.991Z,17.01
2017-09-15T11:42:49.720Z,17.34
2017-09-15T11:43:50.457Z,17.80
2017-09-15T11:44:51.192Z,18.15
2017-09-15T11:45:51.932Z,18.28
2017-09-15T11:46:52.669Z,18.41
2017-09-15T11:47:53.406Z,18.55
2017-09-15T11:48:54.145Z,18.62
2017-09-15T11:49:54.885Z,18.40
2017-09-15T11:50:55.623Z,18.38
2017-09-15T11:51:56.357Z,18.20
2017-09-15T11:52:57.115Z,17.72
2017-09-15T11:53:57.852Z,17.60
2017-09-15T11:54:58.588Z,17.76
2017-09-15T11:55:59.321Z,17.48
2017-09-15T11:57:00.054Z,17.36
2017-09-15T11:58:00.787Z,17.34
2017-09-15T11:59:01.520Z,16.97
2017-09-15T12:00:02.252Z,16.84
2017-09-15T12:01:03.003Z,16.84
2017-09-15T12:02:03.739Z,16.97
2017-09-15T12:03:04.472Z,16.99
2017-09-15T12:04:05.205Z,16.87
2017-09-15T12:05:05.940Z,16.78
2017-09-15T12:06:06.690Z,16.74
2017-09-15T12:07:07.427Z,16.84
2017-09-15T12:08:08.171Z,16.91
2017-09-15T12:09:08.903Z,16.78
2017-09-15T12:10:09.636Z,16.58
2017-09-15T12:11:10.361Z,16.54
2017-09-15T12:12:11.090Z,16.53
2017-09-15T12:13:11.819Z,16.56
2017-09-15T12:14:12.545Z,16.29
2017-09-15T12:15:13.276Z,16.36
2017-09-15T12:16:14.009Z,16.20
2017-09-15T12:17:14.737Z,16.13
2017-09-15T12:18:15.469Z,16.10
2017-09-15T12:19:16.202Z,16.21
2017-09-15T12:20:16.933Z,16.76
2017-09-15T12:21:17.664Z,17.02
2017-09-15T12:22:18.400Z,17.05
2017-09-15T12:23:19.133Z,16.58
2017-09-15T12:24:19.862Z,16.66
2017-09-15T12:25:20.602Z,16.51
2017-09-15T12:26:21.350Z,16.41
2017-09-15T12:27:22.080Z,16.57
2017-09-15T12:28:22.811Z,16.71
2017-09-15T12:29:23.562Z,16.39
2017-09-15T12:30:24.293Z,16.23
2017-09-15T12:31:25.020Z,16.15
2017-09-15T12:32:25.770Z,15.97
2017-09-15T12:33:26.498Z,16.10
2017-09-15T12:34:27.250Z,16.10
2017-09-15T12:35:27.978Z,15.98
2017-09-15T12:36:28.704Z,15.72
2017-09-15T12:37:29.452Z,15.70
2017-09-15T12:38:30.180Z,15.42
2017-09-15T12:39:30.910Z,15.49
2017-09-15T12:40:31.636Z,15.44
2017-09-15T12:41:32.365Z,15.55
2017-09-15T12:42:33.094Z,15.55
2017-09-15T12:43:33.838Z,15.77
2017-09-15T12:44:34.568Z,15.70
2017-09-15T12:45:35.295Z,15.61
2017-09-15T12:46:36.048Z,15.70
2017-09-15T12:47:36.774Z,15.64
2017-09-15T12:48:37.501Z,15.79
2017-09-15T12:49:38.231Z,15.76
2017-09-15T12:50:38.960Z,15.84
2017-09-15T12:51:39.688Z,16.20
2017-09-15T12:52:40.420Z,16.41
2017-09-15T12:53:41.151Z,16.50
2017-09-15T12:54:41.891Z,16.76
2017-09-15T12:55:42.619Z,17.39
2017-09-15T12:56:43.352Z,18.00
2017-09-15T12:57:44.086Z,18.40
2017-09-15T12:58:44.819Z,17.83
2017-09-15T12:59:45.554Z,17.59
2017-09-15T13:00:46.311Z,17.27
2017-09-15T13:01:47.058Z,17.49